Time;durP1;ratioP1;P1;durP2;ratioP2;P2;SDS_P1;SDS_P2;PMS_P1;PMS_P2;Temp;Humidity;BMP_temperature;BMP_pressure;BME280_temperature;BME280_humidity;BME280_pressure;Samples;Min_cycle;Max_cycle;Signal;HPM_P1;HPM_P2
2023/05/03 00:02:01;;;;;;;32.00;28.50;;;;;;;-128.00;-1.00;-1.00;105591;1253;1004473;-74
2023/05/03 00:04:28;;;;;;;30.40;27.30;;;;;;;-128.00;-1.00;-1.00;105717;1253;1003421;-72
2023/05/03 00:06:54;;;;;;;31.50;28.10;;;;;;;-128.00;-1.00;-1.00;105699;1253;1004202;-72
2023/05/03 00:09:21;;;;;;;31.10;27.70;;;;;;;-128.00;-1.00;-1.00;105728;1251;1004105;-72
2023/05/03 00:11:47;;;;;;;29.20;26.20;;;;;;;-128.00;-1.00;-1.00;105734;1252;1004829;-73
2023/05/03 00:14:14;;;;;;;29.50;26.40;;;;;;;-128.00;-1.00;-1.00;105756;1251;1004654;-73
2023/05/03 00:16:41;;;;;;;31.20;27.90;;;;;;;-128.00;-1.00;-1.00;105683;1251;1004728;-72
2023/05/03 00:19:07;;;;;;;31.00;27.50;;;;;;;-128.00;-1.00;-1.00;105705;1251;1004090;-73
2023/05/03 00:21:34;;;;;;;31.30;27.90;;;;;;;-128.00;-1.00;-1.00;105769;1251;1005003;-73
2023/05/03 00:24:00;;;;;;;31.80;28.60;;;;;;;-128.00;-1.00;-1.00;105764;1251;1004138;-73
2023/05/03 00:26:27;;;;;;;31.80;28.50;;;;;;;-128.00;-1.00;-1.00;105486;1251;1004620;-73
2023/05/03 00:28:53;;;;;;;31.60;28.20;;;;;;;-128.00;-1.00;-1.00;105721;1251;1004526;-73
2023/05/03 00:31:20;;;;;;;30.70;27.50;;;;;;;-128.00;-1.00;-1.00;105763;1251;1005091;-74
2023/05/03 00:33:46;;;;;;;30.20;27.20;;;;;;;-128.00;-1.00;-1.00;105747;1251;1004751;-73
2023/05/03 00:36:14;;;;;;;31.00;27.70;;;;;;;-128.00;-1.00;-1.00;105786;1251;1004304;-73
2023/05/03 00:38:41;;;;;;;32.30;29.10;;;;;;;-128.00;-1.00;-1.00;105727;1251;1004279;-73
2023/05/03 00:41:11;;;;;;;34.30;30.60;;;;;;;-128.00;-1.00;-1.00;105617;1251;1004111;-73
2023/05/03 00:43:38;;;;;;;31.80;28.40;;;;;;;-128.00;-1.00;-1.00;105745;1251;1058933;-73
2023/05/03 00:46:06;;;;;;;32.20;29.00;;;;;;;-128.00;-1.00;-1.00;105763;1251;1004150;-73
2023/05/03 00:48:34;;;;;;;31.70;28.30;;;;;;;-128.00;-1.00;-1.00;105688;1251;1004385;-73
2023/05/03 00:51:01;;;;;;;32.90;29.40;;;;;;;-128.00;-1.00;-1.00;105750;1250;1003957;-74
2023/05/03 00:53:28;;;;;;;34.30;29.30;;;;;;;-128.00;-1.00;-1.00;105739;1251;1004432;-73
2023/05/03 00:55:54;;;;;;;32.20;28.70;;;;;;;-128.00;-1.00;-1.00;105756;1251;1004586;-74
2023/05/03 00:58:21;;;;;;;33.50;30.00;;;;;;;-128.00;-1.00;-1.00;105693;1250;1004077;-74
2023/05/03 01:00:48;;;;;;;39.10;35.10;;;;;;;-128.00;-1.00;-1.00;105718;1251;1004116;-74
2023/05/03 01:03:14;;;;;;;36.80;32.90;;;;;;;-128.00;-1.00;-1.00;105729;1251;1005293;-74
2023/05/03 01:06:06;;;;;;;37.70;33.70;;;;;;;-128.00;-1.00;-1.00;105777;1251;1004437;-74
2023/05/03 01:08:48;;;;;;;42.50;37.30;;;;;;;-128.00;-1.00;-1.00;105267;1257;1060188;-74
2023/05/03 01:11:22;;;;;;;45.70;40.60;;;;;;;-128.00;-1.00;-1.00;105219;1257;1046975;-74
2023/05/03 01:14:04;;;;;;;46.70;40.40;;;;;;;-128.00;-1.00;-1.00;105291;1257;1047473;-73
2023/05/03 01:16:39;;;;;;;45.20;40.20;;;;;;;-128.00;-1.00;-1.00;105242;1257;1061934;-73
2023/05/03 01:19:18;;;;;;;42.90;38.30;;;;;;;-128.00;-1.00;-1.00;105243;1257;1057053;-73
2023/05/03 01:21:49;;;;;;;44.00;39.30;;;;;;;-128.00;-1.00;-1.00;105245;1257;1058759;-73
2023/05/03 01:24:20;;;;;;;44.60;39.90;;;;;;;-128.00;-1.00;-1.00;105137;1257;1047497;-73
2023/05/03 01:26:47;;;;;;;43.90;39.60;;;;;;;-128.00;-1.00;-1.00;105207;1257;1048399;-73
2023/05/03 01:29:14;;;;;;;42.20;37.80;;;;;;;-128.00;-1.00;-1.00;105267;1257;1004495;-73
2023/05/03 01:31:52;;;;;;;42.50;38.20;;;;;;;-128.00;-1.00;-1.00;105282;1257;1004356;-73
2023/05/03 01:34:36;;;;;;;42.20;37.70;;;;;;;-128.00;-1.00;-1.00;105213;1257;1060416;-73
2023/05/03 01:37:04;;;;;;;44.40;39.80;;;;;;;-128.00;-1.00;-1.00;105276;1256;1046447;-73
2023/05/03 01:39:55;;;;;;;44.40;39.60;;;;;;;-128.00;-1.00;-1.00;105250;1257;1005000;-73
2023/05/03 01:42:23;;;;;;;43.90;39.20;;;;;;;-128.00;-1.00;-1.00;105248;1257;1061977;-73
2023/05/03 01:44:52;;;;;;;46.20;41.30;;;;;;;-128.00;-1.00;-1.00;105341;1251;1055631;-73
2023/05/03 01:47:19;;;;;;;44.40;39.80;;;;;;;-128.00;-1.00;-1.00;105761;1251;1060061;-73
2023/05/03 01:49:46;;;;;;;45.00;40.30;;;;;;;-128.00;-1.00;-1.00;105756;1251;1003730;-73
2023/05/03 01:52:12;;;;;;;43.70;39.10;;;;;;;-128.00;-1.00;-1.00;105786;1251;1004703;-73
2023/05/03 01:54:39;;;;;;;44.00;39.50;;;;;;;-128.00;-1.00;-1.00;105621;1251;1004189;-73
2023/05/03 01:57:05;;;;;;;43.20;38.70;;;;;;;-128.00;-1.00;-1.00;105733;1251;1003619;-72
2023/05/03 01:59:32;;;;;;;43.50;39.00;;;;;;;-128.00;-1.00;-1.00;105485;1254;1005493;-73
2023/05/03 02:01:58;;;;;;;43.00;38.40;;;;;;;-128.00;-1.00;-1.00;105489;1255;1004388;-72
2023/05/03 02:04:25;;;;;;;43.30;38.70;;;;;;;-128.00;-1.00;-1.00;105474;1255;1004910;-72
2023/05/03 02:06:51;;;;;;;42.10;37.90;;;;;;;-128.00;-1.00;-1.00;105473;1254;1003784;-72
2023/05/03 02:09:18;;;;;;;43.30;39.00;;;;;;;-128.00;-1.00;-1.00;105516;1255;1004301;-72
2023/05/03 02:11:44;;;;;;;44.30;39.70;;;;;;;-128.00;-1.00;-1.00;105461;1255;1003375;-73
2023/05/03 02:14:11;;;;;;;44.10;39.50;;;;;;;-128.00;-1.00;-1.00;105485;1255;1004461;-73
2023/05/03 02:16:38;;;;;;;45.40;40.60;;;;;;;-128.00;-1.00;-1.00;105487;1255;1004658;-73
2023/05/03 02:19:04;;;;;;;45.70;40.10;;;;;;;-128.00;-1.00;-1.00;105508;1255;1004501;-72
2023/05/03 02:21:40;;;;;;;45.50;40.50;;;;;;;-128.00;-1.00;-1.00;105479;1255;1004728;-72
2023/05/03 02:24:06;;;;;;;47.20;41.20;;;;;;;-128.00;-1.00;-1.00;105474;1255;1060281;-72
2023/05/03 02:26:33;;;;;;;48.20;43.10;;;;;;;-128.00;-1.00;-1.00;105217;1256;1003803;-72
2023/05/03 02:28:59;;;;;;;46.10;41.20;;;;;;;-128.00;-1.00;-1.00;105455;1255;1004162;-72
2023/05/03 02:31:26;;;;;;;48.30;43.20;;;;;;;-128.00;-1.00;-1.00;105695;1251;1004141;-72
2023/05/03 02:33:53;;;;;;;50.30;45.00;;;;;;;-128.00;-1.00;-1.00;105764;1250;1006557;-72
2023/05/03 02:36:20;;;;;;;49.90;44.60;;;;;;;-128.00;-1.00;-1.00;105799;1251;1004882;-72
2023/05/03 02:38:46;;;;;;;52.30;46.90;;;;;;;-128.00;-1.00;-1.00;105663;1251;1003712;-72
2023/05/03 02:41:13;;;;;;;53.90;48.00;;;;;;;-128.00;-1.00;-1.00;105805;1251;1004479;-72
2023/05/03 02:43:39;;;;;;;53.00;47.60;;;;;;;-128.00;-1.00;-1.00;105777;1251;1003877;-72
2023/05/03 02:46:06;;;;;;;51.40;46.20;;;;;;;-128.00;-1.00;-1.00;105825;1251;1004193;-72
2023/05/03 02:48:33;;;;;;;52.20;46.80;;;;;;;-128.00;-1.00;-1.00;105739;1251;1004456;-72
2023/05/03 02:51:00;;;;;;;50.50;45.10;;;;;;;-128.00;-1.00;-1.00;105805;1251;1004758;-73
2023/05/03 02:53:26;;;;;;;51.60;46.30;;;;;;;-128.00;-1.00;-1.00;105700;1251;1004749;-73
2023/05/03 02:55:53;;;;;;;51.80;46.50;;;;;;;-128.00;-1.00;-1.00;105681;1251;1004379;-73
2023/05/03 02:58:19;;;;;;;51.70;46.50;;;;;;;-128.00;-1.00;-1.00;105759;1251;1004965;-73
2023/05/03 03:00:46;;;;;;;51.50;46.10;;;;;;;-128.00;-1.00;-1.00;105789;1251;1004489;-72
2023/05/03 03:03:12;;;;;;;47.50;42.70;;;;;;;-128.00;-1.00;-1.00;105761;1251;1003903;-72
2023/05/03 03:05:38;;;;;;;44.20;39.00;;;;;;;-128.00;-1.00;-1.00;105789;1251;1004801;-72
2023/05/03 03:08:05;;;;;;;46.50;41.50;;;;;;;-128.00;-1.00;-1.00;105790;1251;1004302;-72
2023/05/03 03:10:32;;;;;;;47.00;42.00;;;;;;;-128.00;-1.00;-1.00;105776;1251;1004638;-73
2023/05/03 03:12:58;;;;;;;45.30;40.40;;;;;;;-128.00;-1.00;-1.00;105727;1251;1004543;-72
2023/05/03 03:15:25;;;;;;;46.00;41.00;;;;;;;-128.00;-1.00;-1.00;105771;1251;1004305;-72
2023/05/03 03:17:56;;;;;;;43.60;39.20;;;;;;;-128.00;-1.00;-1.00;105751;1251;1003809;-74
2023/05/03 03:20:23;;;;;;;43.70;38.90;;;;;;;-128.00;-1.00;-1.00;105795;1251;1061860;-74
2023/05/03 03:22:49;;;;;;;40.50;36.20;;;;;;;-128.00;-1.00;-1.00;105808;1251;1004188;-74
2023/05/03 03:25:16;;;;;;;41.30;36.80;;;;;;;-128.00;-1.00;-1.00;105746;1251;1004889;-74
2023/05/03 03:27:42;;;;;;;42.70;38.10;;;;;;;-128.00;-1.00;-1.00;105740;1251;1004473;-74
2023/05/03 03:30:10;;;;;;;37.80;33.60;;;;;;;-128.00;-1.00;-1.00;105784;1251;1004441;-74
2023/05/03 03:32:37;;;;;;;40.90;36.70;;;;;;;-128.00;-1.00;-1.00;105771;1252;1004295;-73
2023/05/03 03:35:04;;;;;;;40.20;36.10;;;;;;;-128.00;-1.00;-1.00;105775;1251;1004035;-74
2023/05/03 03:37:30;;;;;;;42.00;37.70;;;;;;;-128.00;-1.00;-1.00;105516;1254;1005329;-74
2023/05/03 03:39:57;;;;;;;58.40;45.90;;;;;;;-128.00;-1.00;-1.00;105542;1254;1004708;-73
2023/05/03 03:42:24;;;;;;;45.40;39.70;;;;;;;-128.00;-1.00;-1.00;105506;1254;1004291;-74
2023/05/03 03:44:51;;;;;;;35.20;31.60;;;;;;;-128.00;-1.00;-1.00;105340;1254;1004395;-74
2023/05/03 03:47:17;;;;;;;36.90;32.70;;;;;;;-128.00;-1.00;-1.00;105530;1254;1004342;-74
2023/05/03 03:49:44;;;;;;;38.20;34.40;;;;;;;-128.00;-1.00;-1.00;105345;1254;1003498;-73
2023/05/03 03:52:11;;;;;;;38.50;34.40;;;;;;;-128.00;-1.00;-1.00;105539;1254;1004595;-74
2023/05/03 03:54:37;;;;;;;37.40;33.70;;;;;;;-128.00;-1.00;-1.00;105558;1254;1003233;-73
2023/05/03 03:57:04;;;;;;;40.90;34.50;;;;;;;-128.00;-1.00;-1.00;105550;1254;1003610;-73
2023/05/03 03:59:30;;;;;;;41.60;37.20;;;;;;;-128.00;-1.00;-1.00;105567;1254;1004697;-73
2023/05/03 04:01:57;;;;;;;39.10;35.20;;;;;;;-128.00;-1.00;-1.00;105266;1254;1004868;-73
2023/05/03 04:04:23;;;;;;;39.40;35.30;;;;;;;-128.00;-1.00;-1.00;105514;1254;1004259;-73
2023/05/03 04:06:50;;;;;;;39.40;35.30;;;;;;;-128.00;-1.00;-1.00;105554;1254;1004095;-73
2023/05/03 04:09:16;;;;;;;39.40;35.30;;;;;;;-128.00;-1.00;-1.00;105759;1251;1003950;-72
2023/05/03 04:11:44;;;;;;;40.00;35.90;;;;;;;-128.00;-1.00;-1.00;105770;1251;1003864;-73
2023/05/03 04:14:11;;;;;;;41.80;37.50;;;;;;;-128.00;-1.00;-1.00;105748;1251;1004403;-73
2023/05/03 04:16:37;;;;;;;39.50;35.40;;;;;;;-128.00;-1.00;-1.00;105758;1251;1003461;-73
2023/05/03 04:19:04;;;;;;;41.60;36.90;;;;;;;-128.00;-1.00;-1.00;105621;1253;1004092;-73
2023/05/03 04:21:31;;;;;;;40.50;36.30;;;;;;;-128.00;-1.00;-1.00;105765;1251;1004339;-74
2023/05/03 04:23:59;;;;;;;40.20;35.80;;;;;;;-128.00;-1.00;-1.00;105800;1252;1004029;-72
2023/05/03 04:26:26;;;;;;;41.60;37.30;;;;;;;-128.00;-1.00;-1.00;105757;1250;1004442;-73
2023/05/03 04:28:52;;;;;;;37.80;33.90;;;;;;;-128.00;-1.00;-1.00;105815;1251;1005087;-73
2023/05/03 04:31:20;;;;;;;38.60;34.40;;;;;;;-128.00;-1.00;-1.00;105787;1251;1003671;-72
2023/05/03 04:33:47;;;;;;;36.90;33.30;;;;;;;-128.00;-1.00;-1.00;105810;1251;1004839;-73
2023/05/03 04:36:17;;;;;;;38.00;33.90;;;;;;;-128.00;-1.00;-1.00;105800;1251;1004906;-73
2023/05/03 04:38:44;;;;;;;34.90;31.40;;;;;;;-128.00;-1.00;-1.00;105438;1251;1058814;-73
2023/05/03 04:41:10;;;;;;;37.90;34.00;;;;;;;-128.00;-1.00;-1.00;105726;1251;1004159;-73
2023/05/03 04:43:37;;;;;;;36.70;33.10;;;;;;;-128.00;-1.00;-1.00;105530;1251;1003899;-73
2023/05/03 04:46:04;;;;;;;37.80;33.70;;;;;;;-128.00;-1.00;-1.00;105815;1251;1004308;-74
2023/05/03 04:48:31;;;;;;;37.30;33.30;;;;;;;-128.00;-1.00;-1.00;105788;1251;1005740;-73
2023/05/03 04:50:57;;;;;;;35.80;32.10;;;;;;;-128.00;-1.00;-1.00;105787;1251;1003600;-73
2023/05/03 04:53:25;;;;;;;35.70;32.10;;;;;;;-128.00;-1.00;-1.00;105750;1251;1004386;-73
2023/05/03 04:55:51;;;;;;;36.90;33.10;;;;;;;-128.00;-1.00;-1.00;105794;1251;1003942;-72
2023/05/03 04:58:18;;;;;;;39.20;35.20;;;;;;;-128.00;-1.00;-1.00;105793;1251;1005596;-74
2023/05/03 05:00:45;;;;;;;38.90;34.60;;;;;;;-128.00;-1.00;-1.00;105767;1251;1004206;-73
2023/05/03 05:03:11;;;;;;;38.70;34.60;;;;;;;-128.00;-1.00;-1.00;105451;1251;1004454;-73
2023/05/03 05:05:38;;;;;;;38.60;34.70;;;;;;;-128.00;-1.00;-1.00;105828;1251;1004226;-73
2023/05/03 05:08:04;;;;;;;39.50;35.30;;;;;;;-128.00;-1.00;-1.00;105859;1251;1004971;-73
2023/05/03 05:10:35;;;;;;;40.60;36.30;;;;;;;-128.00;-1.00;-1.00;105795;1252;1004142;-73
2023/05/03 05:13:01;;;;;;;42.80;38.30;;;;;;;-128.00;-1.00;-1.00;105762;1251;1056744;-72
2023/05/03 05:15:28;;;;;;;42.70;38.20;;;;;;;-128.00;-1.00;-1.00;105779;1251;1003659;-73
2023/05/03 05:17:55;;;;;;;44.80;40.10;;;;;;;-128.00;-1.00;-1.00;105749;1251;1004403;-72
2023/05/03 05:20:21;;;;;;;42.60;38.30;;;;;;;-128.00;-1.00;-1.00;105789;1251;1004332;-73
2023/05/03 05:22:48;;;;;;;46.00;41.10;;;;;;;-128.00;-1.00;-1.00;105808;1251;1004292;-73
2023/05/03 05:25:14;;;;;;;45.50;40.80;;;;;;;-128.00;-1.00;-1.00;105792;1251;1004138;-72
2023/05/03 05:27:41;;;;;;;45.10;40.30;;;;;;;-128.00;-1.00;-1.00;105762;1251;1004006;-73
2023/05/03 05:30:08;;;;;;;40.70;36.50;;;;;;;-128.00;-1.00;-1.00;105788;1251;1004187;-73
2023/05/03 05:32:35;;;;;;;45.30;40.60;;;;;;;-128.00;-1.00;-1.00;105759;1251;1005169;-73
2023/05/03 05:35:01;;;;;;;42.30;38.00;;;;;;;-128.00;-1.00;-1.00;105814;1251;1005024;-73
2023/05/03 05:37:28;;;;;;;44.10;39.40;;;;;;;-128.00;-1.00;-1.00;105796;1251;1003573;-72
2023/05/03 05:39:54;;;;;;;43.70;39.10;;;;;;;-128.00;-1.00;-1.00;105779;1251;1004478;-73
2023/05/03 05:42:21;;;;;;;42.60;38.30;;;;;;;-128.00;-1.00;-1.00;105750;1251;1005429;-72
2023/05/03 05:44:48;;;;;;;42.80;38.30;;;;;;;-128.00;-1.00;-1.00;105782;1251;1005054;-72
2023/05/03 05:47:14;;;;;;;40.00;35.80;;;;;;;-128.00;-1.00;-1.00;105753;1251;1003445;-72
2023/05/03 05:49:41;;;;;;;43.50;38.90;;;;;;;-128.00;-1.00;-1.00;105794;1251;1004304;-73
2023/05/03 05:52:08;;;;;;;41.40;36.90;;;;;;;-128.00;-1.00;-1.00;105422;1251;1004505;-72
2023/05/03 05:54:35;;;;;;;39.30;35.40;;;;;;;-128.00;-1.00;-1.00;105733;1251;1004453;-73
2023/05/03 05:57:02;;;;;;;39.80;35.60;;;;;;;-128.00;-1.00;-1.00;105806;1251;1004943;-75
2023/05/03 05:59:30;;;;;;;40.00;35.80;;;;;;;-128.00;-1.00;-1.00;105657;1251;1004374;-73
2023/05/03 06:01:58;;;;;;;45.80;37.20;;;;;;;-128.00;-1.00;-1.00;105772;1251;1003895;-74
2023/05/03 06:04:26;;;;;;;41.60;37.10;;;;;;;-128.00;-1.00;-1.00;105587;1251;1058667;-73
2023/05/03 06:06:52;;;;;;;41.40;36.60;;;;;;;-128.00;-1.00;-1.00;105724;1251;1004924;-74
2023/05/03 06:09:19;;;;;;;39.20;34.30;;;;;;;-128.00;-1.00;-1.00;105791;1251;1003784;-72
2023/05/03 06:11:46;;;;;;;40.10;36.00;;;;;;;-128.00;-1.00;-1.00;105787;1251;1005324;-73
2023/05/03 06:14:12;;;;;;;40.00;35.70;;;;;;;-128.00;-1.00;-1.00;105777;1251;1004061;-73
2023/05/03 06:16:38;;;;;;;39.90;35.70;;;;;;;-128.00;-1.00;-1.00;105788;1252;1003820;-73
2023/05/03 06:19:05;;;;;;;40.00;35.70;;;;;;;-128.00;-1.00;-1.00;105771;1253;1004590;-73
2023/05/03 06:21:33;;;;;;;39.30;35.20;;;;;;;-128.00;-1.00;-1.00;105810;1251;1005134;-73
2023/05/03 06:23:59;;;;;;;40.00;34.60;;;;;;;-128.00;-1.00;-1.00;105765;1251;1003684;-72
2023/05/03 06:26:26;;;;;;;34.00;30.30;;;;;;;-128.00;-1.00;-1.00;105760;1251;1005978;-72
2023/05/03 06:28:52;;;;;;;37.40;33.40;;;;;;;-128.00;-1.00;-1.00;105810;1251;1004379;-73
2023/05/03 06:31:19;;;;;;;37.10;33.10;;;;;;;-128.00;-1.00;-1.00;105813;1251;1004070;-72
2023/05/03 06:33:46;;;;;;;38.70;34.30;;;;;;;-128.00;-1.00;-1.00;105825;1251;1004750;-72
2023/05/03 06:36:13;;;;;;;40.90;36.10;;;;;;;-128.00;-1.00;-1.00;105561;1251;1004449;-73
2023/05/03 06:38:39;;;;;;;39.00;33.10;;;;;;;-128.00;-1.00;-1.00;105815;1251;1004423;-72
2023/05/03 06:41:06;;;;;;;39.10;33.70;;;;;;;-128.00;-1.00;-1.00;105736;1251;1004675;-73
2023/05/03 06:43:32;;;;;;;35.50;31.70;;;;;;;-128.00;-1.00;-1.00;105772;1251;1003745;-72
2023/05/03 06:45:59;;;;;;;32.00;28.60;;;;;;;-128.00;-1.00;-1.00;105677;1251;1003903;-72
2023/05/03 06:48:26;;;;;;;32.90;28.70;;;;;;;-128.00;-1.00;-1.00;105766;1251;1003988;-72
2023/05/03 06:50:53;;;;;;;29.40;26.40;;;;;;;-128.00;-1.00;-1.00;105767;1253;1004052;-72
2023/05/03 06:53:20;;;;;;;29.50;26.30;;;;;;;-128.00;-1.00;-1.00;105770;1251;1003920;-72
2023/05/03 06:55:47;;;;;;;29.30;25.50;;;;;;;-128.00;-1.00;-1.00;105809;1251;1004319;-73
2023/05/03 06:58:14;;;;;;;28.00;25.00;;;;;;;-128.00;-1.00;-1.00;105780;1251;1004578;-72
2023/05/03 07:00:41;;;;;;;27.60;24.70;;;;;;;-128.00;-1.00;-1.00;105616;1251;1004508;-72
2023/05/03 07:03:07;;;;;;;27.10;24.20;;;;;;;-128.00;-1.00;-1.00;105762;1251;1004587;-73
2023/05/03 07:05:34;;;;;;;26.30;23.60;;;;;;;-128.00;-1.00;-1.00;105795;1251;1003863;-73
2023/05/03 07:08:00;;;;;;;25.20;22.60;;;;;;;-128.00;-1.00;-1.00;105781;1251;1003994;-73
2023/05/03 07:10:29;;;;;;;27.20;23.80;;;;;;;-128.00;-1.00;-1.00;105791;1251;1005032;-73
2023/05/03 07:12:56;;;;;;;25.20;22.50;;;;;;;-128.00;-1.00;-1.00;105803;1251;1061296;-73
2023/05/03 07:15:23;;;;;;;23.00;20.50;;;;;;;-128.00;-1.00;-1.00;105822;1251;1004074;-73
2023/05/03 07:17:49;;;;;;;22.10;19.90;;;;;;;-128.00;-1.00;-1.00;105663;1254;1004382;-73
2023/05/03 07:20:16;;;;;;;23.00;20.30;;;;;;;-128.00;-1.00;-1.00;105776;1251;1005244;-72
2023/05/03 07:22:43;;;;;;;21.10;19.00;;;;;;;-128.00;-1.00;-1.00;105795;1251;1004953;-72
2023/05/03 07:25:11;;;;;;;24.10;20.10;;;;;;;-128.00;-1.00;-1.00;105773;1251;1004453;-73
2023/05/03 07:27:37;;;;;;;21.90;19.60;;;;;;;-128.00;-1.00;-1.00;105800;1251;1004297;-73
2023/05/03 07:30:05;;;;;;;20.80;18.10;;;;;;;-128.00;-1.00;-1.00;105712;1251;1004101;-74
2023/05/03 07:32:31;;;;;;;20.50;18.00;;;;;;;-128.00;-1.00;-1.00;105791;1251;1004012;-73
2023/05/03 07:34:58;;;;;;;26.00;23.40;;;;;;;-128.00;-1.00;-1.00;105760;1252;1004883;-73
2023/05/03 07:37:26;;;;;;;28.90;25.90;;;;;;;-128.00;-1.00;-1.00;105801;1251;1004423;-73
2023/05/03 07:39:52;;;;;;;31.00;27.80;;;;;;;-128.00;-1.00;-1.00;105780;1251;1004231;-73
2023/05/03 07:42:19;;;;;;;31.10;27.80;;;;;;;-128.00;-1.00;-1.00;105757;1251;1004296;-73
2023/05/03 07:44:45;;;;;;;30.80;27.90;;;;;;;-128.00;-1.00;-1.00;105775;1251;1004857;-74
2023/05/03 07:47:12;;;;;;;31.90;28.50;;;;;;;-128.00;-1.00;-1.00;105783;1251;1004270;-73
2023/05/03 07:49:39;;;;;;;31.60;28.30;;;;;;;-128.00;-1.00;-1.00;105780;1253;1004365;-73
2023/05/03 07:52:05;;;;;;;31.30;28.10;;;;;;;-128.00;-1.00;-1.00;105812;1251;1003831;-73
2023/05/03 07:54:32;;;;;;;32.60;29.20;;;;;;;-128.00;-1.00;-1.00;105776;1251;1004234;-73
2023/05/03 07:56:59;;;;;;;31.60;28.30;;;;;;;-128.00;-1.00;-1.00;105775;1251;1003430;-73
2023/05/03 07:59:26;;;;;;;31.10;27.20;;;;;;;-128.00;-1.00;-1.00;105809;1251;1004690;-73
2023/05/03 08:01:52;;;;;;;30.10;27.00;;;;;;;-128.00;-1.00;-1.00;105801;1251;1003956;-72
2023/05/03 08:04:19;;;;;;;30.50;27.30;;;;;;;-128.00;-1.00;-1.00;105812;1251;1003404;-72
2023/05/03 08:06:45;;;;;;;28.90;26.00;;;;;;;-128.00;-1.00;-1.00;105769;1252;1004399;-74
2023/05/03 08:09:12;;;;;;;31.50;28.10;;;;;;;-128.00;-1.00;-1.00;105765;1251;1004673;-74
2023/05/03 08:11:39;;;;;;;27.90;25.00;;;;;;;-128.00;-1.00;-1.00;105784;1251;1003923;-74
2023/05/03 08:14:05;;;;;;;26.40;23.30;;;;;;;-128.00;-1.00;-1.00;105803;1251;1004292;-73
2023/05/03 08:16:32;;;;;;;25.50;22.90;;;;;;;-128.00;-1.00;-1.00;105748;1251;1004246;-72
2023/05/03 08:18:58;;;;;;;24.80;22.20;;;;;;;-128.00;-1.00;-1.00;105793;1251;1003774;-72
2023/05/03 08:21:27;;;;;;;24.00;21.60;;;;;;;-128.00;-1.00;-1.00;105755;1251;1004931;-72
2023/05/03 08:23:53;;;;;;;27.90;25.20;;;;;;;-128.00;-1.00;-1.00;105830;1251;1046015;-72
2023/05/03 08:26:20;;;;;;;24.40;22.00;;;;;;;-128.00;-1.00;-1.00;105790;1251;1004261;-72
2023/05/03 08:28:47;;;;;;;25.50;22.90;;;;;;;-128.00;-1.00;-1.00;105758;1251;1003781;-71
2023/05/03 08:31:14;;;;;;;24.60;22.00;;;;;;;-128.00;-1.00;-1.00;105760;1251;1004928;-72
2023/05/03 08:33:40;;;;;;;24.70;22.20;;;;;;;-128.00;-1.00;-1.00;105761;1251;1004158;-74
2023/05/03 08:36:07;;;;;;;23.70;21.30;;;;;;;-128.00;-1.00;-1.00;105478;1251;1004220;-74
2023/05/03 08:38:35;;;;;;;24.80;22.40;;;;;;;-128.00;-1.00;-1.00;105778;1251;1004575;-73
2023/05/03 08:41:13;;;;;;;25.30;22.60;;;;;;;-128.00;-1.00;-1.00;105838;1251;1004566;-73
2023/05/03 08:43:43;;;;;;;26.60;23.80;;;;;;;-128.00;-1.00;-1.00;105766;1251;1059025;-73
2023/05/03 08:46:12;;;;;;;28.00;24.80;;;;;;;-128.00;-1.00;-1.00;105762;1251;1046256;-73
2023/05/03 08:48:39;;;;;;;27.90;25.10;;;;;;;-128.00;-1.00;-1.00;105755;1253;1048265;-73
2023/05/03 08:51:08;;;;;;;27.50;24.60;;;;;;;-128.00;-1.00;-1.00;105760;1251;1004006;-73
2023/05/03 08:53:35;;;;;;;28.70;25.60;;;;;;;-128.00;-1.00;-1.00;105778;1253;1054898;-74
2023/05/03 08:56:06;;;;;;;28.90;25.90;;;;;;;-128.00;-1.00;-1.00;105778;1251;1003859;-73
2023/05/03 08:58:35;;;;;;;26.40;23.50;;;;;;;-128.00;-1.00;-1.00;105739;1252;1046258;-74
2023/05/03 09:01:06;;;;;;;28.20;25.20;;;;;;;-128.00;-1.00;-1.00;105775;1251;1046742;-74
2023/05/03 09:03:34;;;;;;;29.90;25.10;;;;;;;-128.00;-1.00;-1.00;105685;1251;1061699;-73
2023/05/03 09:06:02;;;;;;;19.50;17.40;;;;;;;-128.00;-1.00;-1.00;105698;1252;1004349;-73
2023/05/03 09:08:29;;;;;;;20.00;17.90;;;;;;;-128.00;-1.00;-1.00;105790;1251;1004099;-74
2023/05/03 09:10:56;;;;;;;19.40;17.40;;;;;;;-128.00;-1.00;-1.00;105737;1252;1004170;-74
2023/05/03 09:13:30;;;;;;;19.30;17.20;;;;;;;-128.00;-1.00;-1.00;105784;1251;1003248;-74
2023/05/03 09:15:57;;;;;;;18.30;16.40;;;;;;;-128.00;-1.00;-1.00;105775;1251;1061441;-74
2023/05/03 09:18:24;;;;;;;12.80;10.00;;;;;;;-128.00;-1.00;-1.00;105779;1251;1004860;-73
2023/05/03 09:20:50;;;;;;;13.40;9.50;;;;;;;-128.00;-1.00;-1.00;105738;1251;1005190;-73
2023/05/03 09:23:27;;;;;;;10.30;8.70;;;;;;;-128.00;-1.00;-1.00;105769;1251;1004093;-74
2023/05/03 09:25:54;;;;;;;11.70;9.40;;;;;;;-128.00;-1.00;-1.00;105775;1251;1047594;-74
2023/05/03 09:28:20;;;;;;;13.40;9.80;;;;;;;-128.00;-1.00;-1.00;105772;1251;1004975;-73
2023/05/03 09:30:48;;;;;;;12.60;9.70;;;;;;;-128.00;-1.00;-1.00;105750;1253;1003934;-74
2023/05/03 09:33:19;;;;;;;13.30;9.30;;;;;;;-128.00;-1.00;-1.00;105713;1252;1003842;-73
2023/05/03 09:35:57;;;;;;;14.20;9.60;;;;;;;-128.00;-1.00;-1.00;105750;1251;1046430;-73
2023/05/03 09:38:32;;;;;;;11.80;8.90;;;;;;;-128.00;-1.00;-1.00;105785;1254;1046942;-74
2023/05/03 09:41:04;;;;;;;10.50;9.40;;;;;;;-128.00;-1.00;-1.00;105745;1251;1061121;-74
2023/05/03 09:43:31;;;;;;;11.10;9.70;;;;;;;-128.00;-1.00;-1.00;105533;1251;1055559;-74
2023/05/03 09:46:10;;;;;;;13.90;9.50;;;;;;;-128.00;-1.00;-1.00;105735;1251;1004567;-74
2023/05/03 09:48:37;;;;;;;11.90;8.60;;;;;;;-128.00;-1.00;-1.00;105721;1253;1046206;-74
2023/05/03 09:51:04;;;;;;;11.40;9.10;;;;;;;-128.00;-1.00;-1.00;105820;1251;1004577;-73
2023/05/03 09:53:32;;;;;;;11.90;9.10;;;;;;;-128.00;-1.00;-1.00;105500;1251;1004291;-75
2023/05/03 09:56:02;;;;;;;12.20;8.90;;;;;;;-128.00;-1.00;-1.00;104409;1251;1642103;-74
2023/05/03 09:58:29;;;;;;;14.50;9.10;;;;;;;-128.00;-1.00;-1.00;105766;1251;1058682;-74
2023/05/03 10:00:56;;;;;;;14.50;9.70;;;;;;;-128.00;-1.00;-1.00;105608;1251;1004679;-74
2023/05/03 10:03:56;;;;;;;11.50;8.80;;;;;;;-128.00;-1.00;-1.00;105779;1251;1004482;-77
2023/05/03 10:06:29;;;;;;;14.10;9.00;;;;;;;-128.00;-1.00;-1.00;105186;1258;1061154;-74
2023/05/03 10:09:04;;;;;;;14.90;9.30;;;;;;;-128.00;-1.00;-1.00;105345;1257;1055189;-74
2023/05/03 10:11:35;;;;;;;15.80;9.50;;;;;;;-128.00;-1.00;-1.00;105285;1257;1057923;-75
2023/05/03 10:14:04;;;;;;;12.90;9.10;;;;;;;-128.00;-1.00;-1.00;105196;1259;1046124;-74
2023/05/03 10:16:37;;;;;;;12.50;8.60;;;;;;;-128.00;-1.00;-1.00;105276;1257;1046505;-73
2023/05/03 10:19:14;;;;;;;8.60;7.80;;;;;;;-128.00;-1.00;-1.00;105251;1259;1061563;-75
2023/05/03 10:21:40;;;;;;;9.00;8.10;;;;;;;-128.00;-1.00;-1.00;105253;1257;1056232;-74
2023/05/03 10:24:11;;;;;;;12.20;7.60;;;;;;;-128.00;-1.00;-1.00;105241;1257;1004182;-74
2023/05/03 10:26:44;;;;;;;10.20;6.50;;;;;;;-128.00;-1.00;-1.00;105270;1257;1046543;-73
2023/05/03 10:29:36;;;;;;;10.60;6.90;;;;;;;-128.00;-1.00;-1.00;105213;1257;1047838;-74
2023/05/03 10:32:04;;;;;;;9.70;7.20;;;;;;;-128.00;-1.00;-1.00;105271;1260;1061823;-74
2023/05/03 10:34:32;;;;;;;7.20;6.20;;;;;;;-128.00;-1.00;-1.00;105250;1258;1003879;-74
2023/05/03 10:37:07;;;;;;;9.90;7.50;;;;;;;-128.00;-1.00;-1.00;105088;1258;1059669;-74
2023/05/03 10:39:33;;;;;;;7.70;7.00;;;;;;;-128.00;-1.00;-1.00;105252;1259;1045926;-74
2023/05/03 10:42:07;;;;;;;9.10;7.20;;;;;;;-128.00;-1.00;-1.00;105342;1256;1004811;-74
2023/05/03 10:44:59;;;;;;;9.20;6.60;;;;;;;-128.00;-1.00;-1.00;105773;1251;1061715;-74
2023/05/03 10:47:26;;;;;;;10.30;7.00;;;;;;;-128.00;-1.00;-1.00;105722;1255;1055975;-74
2023/05/03 10:50:14;;;;;;;10.40;7.20;;;;;;;-128.00;-1.00;-1.00;105456;1253;1003643;-74
2023/05/03 10:52:40;;;;;;;7.10;6.20;;;;;;;-128.00;-1.00;-1.00;105692;1251;1046947;-74
2023/05/03 10:55:19;;;;;;;10.50;7.80;;;;;;;-128.00;-1.00;-1.00;105765;1251;1004519;-73
2023/05/03 10:57:47;;;;;;;10.30;8.10;;;;;;;-128.00;-1.00;-1.00;105618;1253;1060893;-73
2023/05/03 11:00:17;;;;;;;10.80;9.00;;;;;;;-128.00;-1.00;-1.00;105718;1255;1004675;-73
2023/05/03 11:03:18;;;;;;;11.00;8.40;;;;;;;-128.00;-1.00;-1.00;105725;1251;1059146;-73
2023/05/03 11:05:47;;;;;;;11.60;7.40;;;;;;;-128.00;-1.00;-1.00;105725;1251;1046812;-74
2023/05/03 11:08:16;;;;;;;9.00;6.90;;;;;;;-128.00;-1.00;-1.00;105747;1251;1048182;-73